sensor_id;sensor_type;location;lat;lon;timestamp;P1;durP1;ratioP1;P2;durP2;ratioP2
41255;SDS011;26989;45.524;10.938;2024-01-15T00:01:13;99.70;;;49.35;;
41255;SDS011;26989;45.524;10.938;2024-01-15T00:03:40;99.80;;;48.13;;
41255;SDS011;26989;45.524;10.938;2024-01-15T00:06:08;99.47;;;48.83;;
41255;SDS011;26989;45.524;10.938;2024-01-15T00:08:35;94.47;;;46.38;;
41255;SDS011;26989;45.524;10.938;2024-01-15T00:11:02;101.25;;;49.70;;
41255;SDS011;26989;45.524;10.938;2024-01-15T00:13:29;99.15;;;49.88;;
41255;SDS011;26989;45.524;10.938;2024-01-15T00:15:56;102.28;;;47.72;;
41255;SDS011;26989;45.524;10.938;2024-01-15T00:18:23;108.65;;;50.05;;
41255;SDS011;26989;45.524;10.938;2024-01-15T00:20:50;97.85;;;48.35;;
41255;SDS011;26989;45.524;10.938;2024-01-15T00:23:17;99.00;;;46.53;;
41255;SDS011;26989;45.524;10.938;2024-01-15T00:25:44;96.03;;;44.45;;
41255;SDS011;26989;45.524;10.938;2024-01-15T00:28:11;79.80;;;40.53;;
41255;SDS011;26989;45.524;10.938;2024-01-15T00:30:37;86.45;;;44.28;;
41255;SDS011;26989;45.524;10.938;2024-01-15T00:33:05;89.70;;;44.28;;
41255;SDS011;26989;45.524;10.938;2024-01-15T00:35:32;87.00;;;40.83;;
41255;SDS011;26989;45.524;10.938;2024-01-15T00:37:59;78.93;;;38.58;;
41255;SDS011;26989;45.524;10.938;2024-01-15T00:40:26;76.80;;;37.35;;
41255;SDS011;26989;45.524;10.938;2024-01-15T00:42:53;76.38;;;38.70;;
41255;SDS011;26989;45.524;10.938;2024-01-15T00:45:19;82.03;;;39.38;;
41255;SDS011;26989;45.524;10.938;2024-01-15T00:47:47;83.43;;;40.20;;
41255;SDS011;26989;45.524;10.938;2024-01-15T00:50:14;83.53;;;39.90;;
41255;SDS011;26989;45.524;10.938;2024-01-15T00:52:41;83.03;;;39.28;;
41255;SDS011;26989;45.524;10.938;2024-01-15T00:55:08;69.63;;;38.17;;
41255;SDS011;26989;45.524;10.938;2024-01-15T00:57:35;71.75;;;37.17;;
41255;SDS011;26989;45.524;10.938;2024-01-15T01:00:02;60.42;;;31.15;;
41255;SDS011;26989;45.524;10.938;2024-01-15T01:02:32;64.47;;;32.03;;
41255;SDS011;26989;45.524;10.938;2024-01-15T01:04:59;64.35;;;32.85;;
41255;SDS011;26989;45.524;10.938;2024-01-15T01:07:25;60.70;;;29.83;;
41255;SDS011;26989;45.524;10.938;2024-01-15T01:09:52;52.55;;;27.35;;
41255;SDS011;26989;45.524;10.938;2024-01-15T01:12:19;57.45;;;27.13;;
41255;SDS011;26989;45.524;10.938;2024-01-15T01:14:46;53.25;;;25.83;;
41255;SDS011;26989;45.524;10.938;2024-01-15T01:17:13;43.50;;;24.50;;
41255;SDS011;26989;45.524;10.938;2024-01-15T01:19:40;54.15;;;26.10;;
41255;SDS011;26989;45.524;10.938;2024-01-15T01:22:07;48.83;;;25.10;;
41255;SDS011;26989;45.524;10.938;2024-01-15T01:24:34;46.88;;;24.80;;
41255;SDS011;26989;45.524;10.938;2024-01-15T01:27:01;48.65;;;24.90;;
41255;SDS011;26989;45.524;10.938;2024-01-15T01:29:28;55.90;;;27.00;;
41255;SDS011;26989;45.524;10.938;2024-01-15T01:31:54;54.28;;;29.23;;
41255;SDS011;26989;45.524;10.938;2024-01-15T01:34:22;62.67;;;30.35;;
41255;SDS011;26989;45.524;10.938;2024-01-15T01:36:50;58.85;;;29.75;;
41255;SDS011;26989;45.524;10.938;2024-01-15T01:39:16;62.28;;;30.05;;
41255;SDS011;26989;45.524;10.938;2024-01-15T01:41:43;57.78;;;30.48;;
41255;SDS011;26989;45.524;10.938;2024-01-15T01:44:10;61.80;;;30.50;;
41255;SDS011;26989;45.524;10.938;2024-01-15T01:46:37;57.67;;;29.00;;
41255;SDS011;26989;45.524;10.938;2024-01-15T01:49:07;52.53;;;27.88;;
41255;SDS011;26989;45.524;10.938;2024-01-15T01:51:35;46.72;;;25.70;;
41255;SDS011;26989;45.524;10.938;2024-01-15T01:54:04;57.97;;;28.35;;
41255;SDS011;26989;45.524;10.938;2024-01-15T01:56:33;55.70;;;28.92;;
41255;SDS011;26989;45.524;10.938;2024-01-15T01:59:01;59.47;;;28.50;;
41255;SDS011;26989;45.524;10.938;2024-01-15T02:01:29;56.70;;;28.08;;
41255;SDS011;26989;45.524;10.938;2024-01-15T02:03:57;47.22;;;25.42;;
41255;SDS011;26989;45.524;10.938;2024-01-15T02:06:25;49.22;;;25.45;;
41255;SDS011;26989;45.524;10.938;2024-01-15T02:08:52;50.35;;;25.05;;
41255;SDS011;26989;45.524;10.938;2024-01-15T02:11:19;47.17;;;24.40;;
41255;SDS011;26989;45.524;10.938;2024-01-15T02:13:46;41.60;;;21.70;;
41255;SDS011;26989;45.524;10.938;2024-01-15T02:16:13;40.95;;;21.80;;
41255;SDS011;26989;45.524;10.938;2024-01-15T02:18:41;38.45;;;21.40;;
41255;SDS011;26989;45.524;10.938;2024-01-15T02:21:09;38.03;;;20.05;;
41255;SDS011;26989;45.524;10.938;2024-01-15T02:23:37;38.20;;;18.67;;
41255;SDS011;26989;45.524;10.938;2024-01-15T02:26:05;37.13;;;20.05;;
41255;SDS011;26989;45.524;10.938;2024-01-15T02:28:32;36.95;;;19.77;;
41255;SDS011;26989;45.524;10.938;2024-01-15T02:31:00;41.25;;;21.42;;
41255;SDS011;26989;45.524;10.938;2024-01-15T02:33:27;48.58;;;23.40;;
41255;SDS011;26989;45.524;10.938;2024-01-15T02:35:54;53.55;;;27.10;;
41255;SDS011;26989;45.524;10.938;2024-01-15T02:38:21;49.00;;;23.92;;
41255;SDS011;26989;45.524;10.938;2024-01-15T02:40:49;46.50;;;23.70;;
41255;SDS011;26989;45.524;10.938;2024-01-15T02:43:16;45.53;;;23.52;;
41255;SDS011;26989;45.524;10.938;2024-01-15T02:45:45;43.30;;;21.63;;
41255;SDS011;26989;45.524;10.938;2024-01-15T02:48:13;40.72;;;21.58;;
41255;SDS011;26989;45.524;10.938;2024-01-15T02:50:40;41.25;;;20.65;;
41255;SDS011;26989;45.524;10.938;2024-01-15T02:53:07;39.47;;;19.95;;
41255;SDS011;26989;45.524;10.938;2024-01-15T02:55:34;36.33;;;17.98;;
41255;SDS011;26989;45.524;10.938;2024-01-15T02:58:01;35.72;;;19.05;;
41255;SDS011;26989;45.524;10.938;2024-01-15T03:00:28;43.25;;;21.77;;
41255;SDS011;26989;45.524;10.938;2024-01-15T03:02:55;49.70;;;24.52;;
41255;SDS011;26989;45.524;10.938;2024-01-15T03:05:22;53.08;;;27.60;;
41255;SDS011;26989;45.524;10.938;2024-01-15T03:07:49;48.20;;;25.58;;
41255;SDS011;26989;45.524;10.938;2024-01-15T03:10:16;47.70;;;25.55;;
41255;SDS011;26989;45.524;10.938;2024-01-15T03:12:43;54.95;;;25.48;;
41255;SDS011;26989;45.524;10.938;2024-01-15T03:15:10;50.30;;;27.15;;
41255;SDS011;26989;45.524;10.938;2024-01-15T03:17:37;58.53;;;29.42;;
41255;SDS011;26989;45.524;10.938;2024-01-15T03:20:04;65.95;;;33.38;;
41255;SDS011;26989;45.524;10.938;2024-01-15T03:22:31;66.63;;;32.97;;
41255;SDS011;26989;45.524;10.938;2024-01-15T03:24:58;63.47;;;32.50;;
41255;SDS011;26989;45.524;10.938;2024-01-15T03:27:25;67.68;;;34.60;;
41255;SDS011;26989;45.524;10.938;2024-01-15T03:29:52;68.00;;;34.40;;
41255;SDS011;26989;45.524;10.938;2024-01-15T03:32:19;67.63;;;34.35;;
41255;SDS011;26989;45.524;10.938;2024-01-15T03:34:46;65.25;;;34.28;;
41255;SDS011;26989;45.524;10.938;2024-01-15T03:37:14;67.55;;;35.17;;
41255;SDS011;26989;45.524;10.938;2024-01-15T03:39:41;65.57;;;33.90;;
41255;SDS011;26989;45.524;10.938;2024-01-15T03:42:08;72.65;;;35.80;;
41255;SDS011;26989;45.524;10.938;2024-01-15T03:44:35;75.07;;;35.20;;
41255;SDS011;26989;45.524;10.938;2024-01-15T03:47:01;63.88;;;32.60;;
41255;SDS011;26989;45.524;10.938;2024-01-15T03:49:28;66.53;;;34.70;;
41255;SDS011;26989;45.524;10.938;2024-01-15T03:51:56;69.68;;;33.60;;
41255;SDS011;26989;45.524;10.938;2024-01-15T03:54:23;62.97;;;33.92;;
41255;SDS011;26989;45.524;10.938;2024-01-15T03:56:50;68.40;;;33.33;;
41255;SDS011;26989;45.524;10.938;2024-01-15T03:59:16;62.60;;;31.65;;
41255;SDS011;26989;45.524;10.938;2024-01-15T04:01:50;68.30;;;31.80;;
41255;SDS011;26989;45.524;10.938;2024-01-15T04:04:17;54.58;;;26.65;;
41255;SDS011;26989;45.524;10.938;2024-01-15T04:06:45;50.17;;;26.63;;
41255;SDS011;26989;45.524;10.938;2024-01-15T04:09:12;49.75;;;26.65;;
41255;SDS011;26989;45.524;10.938;2024-01-15T04:11:40;55.95;;;27.77;;
41255;SDS011;26989;45.524;10.938;2024-01-15T04:14:07;66.05;;;32.95;;
41255;SDS011;26989;45.524;10.938;2024-01-15T04:16:34;76.57;;;36.65;;
41255;SDS011;26989;45.524;10.938;2024-01-15T04:19:01;70.88;;;35.00;;
41255;SDS011;26989;45.524;10.938;2024-01-15T04:21:28;76.40;;;34.50;;
41255;SDS011;26989;45.524;10.938;2024-01-15T04:23:55;75.05;;;36.47;;
41255;SDS011;26989;45.524;10.938;2024-01-15T04:26:22;69.70;;;35.78;;
41255;SDS011;26989;45.524;10.938;2024-01-15T04:28:49;74.97;;;35.65;;
41255;SDS011;26989;45.524;10.938;2024-01-15T04:31:25;74.50;;;35.38;;
41255;SDS011;26989;45.524;10.938;2024-01-15T04:33:54;72.20;;;34.85;;
41255;SDS011;26989;45.524;10.938;2024-01-15T04:36:21;71.30;;;35.53;;
41255;SDS011;26989;45.524;10.938;2024-01-15T04:38:48;72.13;;;36.85;;
41255;SDS011;26989;45.524;10.938;2024-01-15T04:41:15;80.55;;;38.78;;
41255;SDS011;26989;45.524;10.938;2024-01-15T04:43:43;76.20;;;37.90;;
41255;SDS011;26989;45.524;10.938;2024-01-15T04:46:10;84.88;;;40.50;;
41255;SDS011;26989;45.524;10.938;2024-01-15T04:48:37;84.70;;;41.38;;
41255;SDS011;26989;45.524;10.938;2024-01-15T04:51:04;78.65;;;39.00;;
41255;SDS011;26989;45.524;10.938;2024-01-15T04:53:33;77.50;;;36.78;;
41255;SDS011;26989;45.524;10.938;2024-01-15T04:56:01;82.90;;;40.83;;
41255;SDS011;26989;45.524;10.938;2024-01-15T04:58:28;80.45;;;38.78;;
41255;SDS011;26989;45.524;10.938;2024-01-15T05:00:55;86.45;;;40.95;;
41255;SDS011;26989;45.524;10.938;2024-01-15T05:03:23;83.65;;;40.13;;
41255;SDS011;26989;45.524;10.938;2024-01-15T05:05:50;82.32;;;38.33;;
41255;SDS011;26989;45.524;10.938;2024-01-15T05:08:17;83.75;;;40.95;;
41255;SDS011;26989;45.524;10.938;2024-01-15T05:10:44;82.88;;;39.88;;
41255;SDS011;26989;45.524;10.938;2024-01-15T05:13:11;80.63;;;39.45;;
41255;SDS011;26989;45.524;10.938;2024-01-15T05:15:38;76.50;;;35.80;;
41255;SDS011;26989;45.524;10.938;2024-01-15T05:18:05;75.45;;;35.15;;
41255;SDS011;26989;45.524;10.938;2024-01-15T05:20:33;75.30;;;37.33;;
41255;SDS011;26989;45.524;10.938;2024-01-15T05:23:00;81.10;;;36.67;;
41255;SDS011;26989;45.524;10.938;2024-01-15T05:25:27;77.15;;;37.15;;
41255;SDS011;26989;45.524;10.938;2024-01-15T05:27:54;73.47;;;35.78;;
41255;SDS011;26989;45.524;10.938;2024-01-15T05:30:21;73.43;;;35.83;;
41255;SDS011;26989;45.524;10.938;2024-01-15T05:32:47;81.20;;;39.08;;
41255;SDS011;26989;45.524;10.938;2024-01-15T05:35:14;75.72;;;37.03;;
41255;SDS011;26989;45.524;10.938;2024-01-15T05:37:42;80.20;;;36.97;;
41255;SDS011;26989;45.524;10.938;2024-01-15T05:40:14;66.93;;;31.98;;
41255;SDS011;26989;45.524;10.938;2024-01-15T05:42:41;68.05;;;31.30;;
41255;SDS011;26989;45.524;10.938;2024-01-15T05:45:08;66.75;;;32.45;;
41255;SDS011;26989;45.524;10.938;2024-01-15T05:47:36;62.35;;;29.20;;
41255;SDS011;26989;45.524;10.938;2024-01-15T05:50:03;64.05;;;29.83;;
41255;SDS011;26989;45.524;10.938;2024-01-15T05:52:31;66.78;;;31.77;;
41255;SDS011;26989;45.524;10.938;2024-01-15T05:54:58;43.47;;;23.17;;
41255;SDS011;26989;45.524;10.938;2024-01-15T05:57:25;52.50;;;24.17;;
41255;SDS011;26989;45.524;10.938;2024-01-15T05:59:52;66.20;;;32.60;;
41255;SDS011;26989;45.524;10.938;2024-01-15T06:02:19;58.50;;;30.20;;
41255;SDS011;26989;45.524;10.938;2024-01-15T06:04:46;67.03;;;30.67;;
41255;SDS011;26989;45.524;10.938;2024-01-15T06:07:13;64.25;;;29.85;;
41255;SDS011;26989;45.524;10.938;2024-01-15T06:09:40;59.67;;;28.00;;
41255;SDS011;26989;45.524;10.938;2024-01-15T06:12:07;59.53;;;26.70;;
41255;SDS011;26989;45.524;10.938;2024-01-15T06:14:34;58.00;;;26.98;;
41255;SDS011;26989;45.524;10.938;2024-01-15T06:17:01;57.35;;;26.30;;
41255;SDS011;26989;45.524;10.938;2024-01-15T06:19:29;60.35;;;25.05;;
41255;SDS011;26989;45.524;10.938;2024-01-15T06:21:56;48.28;;;23.70;;
41255;SDS011;26989;45.524;10.938;2024-01-15T06:24:23;48.25;;;23.25;;
41255;SDS011;26989;45.524;10.938;2024-01-15T06:26:50;52.42;;;23.80;;
41255;SDS011;26989;45.524;10.938;2024-01-15T06:29:18;47.65;;;22.45;;
41255;SDS011;26989;45.524;10.938;2024-01-15T06:31:45;53.10;;;23.50;;
41255;SDS011;26989;45.524;10.938;2024-01-15T06:34:12;55.90;;;22.75;;
41255;SDS011;26989;45.524;10.938;2024-01-15T06:36:39;46.95;;;21.30;;
41255;SDS011;26989;45.524;10.938;2024-01-15T06:39:06;48.85;;;21.95;;
41255;SDS011;26989;45.524;10.938;2024-01-15T06:41:33;53.80;;;23.80;;
41255;SDS011;26989;45.524;10.938;2024-01-15T06:44:00;59.45;;;24.67;;
41255;SDS011;26989;45.524;10.938;2024-01-15T06:46:27;61.17;;;26.08;;
41255;SDS011;26989;45.524;10.938;2024-01-15T06:48:54;56.30;;;25.55;;
41255;SDS011;26989;45.524;10.938;2024-01-15T06:51:21;50.88;;;24.65;;
41255;SDS011;26989;45.524;10.938;2024-01-15T06:53:48;50.58;;;24.08;;
41255;SDS011;26989;45.524;10.938;2024-01-15T06:56:15;54.65;;;24.95;;
41255;SDS011;26989;45.524;10.938;2024-01-15T06:58:41;67.03;;;30.88;;
41255;SDS011;26989;45.524;10.938;2024-01-15T07:01:09;64.05;;;28.60;;
41255;SDS011;26989;45.524;10.938;2024-01-15T07:03:37;65.03;;;27.35;;
41255;SDS011;26989;45.524;10.938;2024-01-15T07:06:04;62.42;;;28.77;;
41255;SDS011;26989;45.524;10.938;2024-01-15T07:08:32;63.63;;;29.08;;
41255;SDS011;26989;45.524;10.938;2024-01-15T07:10:58;58.78;;;27.67;;
41255;SDS011;26989;45.524;10.938;2024-01-15T07:13:25;61.38;;;27.80;;
41255;SDS011;26989;45.524;10.938;2024-01-15T07:15:53;63.20;;;26.52;;
41255;SDS011;26989;45.524;10.938;2024-01-15T07:18:22;53.28;;;26.27;;
41255;SDS011;26989;45.524;10.938;2024-01-15T07:20:52;55.08;;;26.52;;
41255;SDS011;26989;45.524;10.938;2024-01-15T07:23:19;59.75;;;27.52;;
41255;SDS011;26989;45.524;10.938;2024-01-15T07:25:46;54.53;;;27.25;;
41255;SDS011;26989;45.524;10.938;2024-01-15T07:28:13;63.15;;;28.60;;
41255;SDS011;26989;45.524;10.938;2024-01-15T07:30:40;49.47;;;24.20;;
41255;SDS011;26989;45.524;10.938;2024-01-15T07:33:07;54.10;;;24.90;;
41255;SDS011;26989;45.524;10.938;2024-01-15T07:35:34;55.13;;;25.35;;
41255;SDS011;26989;45.524;10.938;2024-01-15T07:38:02;53.55;;;25.75;;
41255;SDS011;26989;45.524;10.938;2024-01-15T07:40:30;63.50;;;30.05;;
41255;SDS011;26989;45.524;10.938;2024-01-15T07:42:57;71.93;;;31.05;;
41255;SDS011;26989;45.524;10.938;2024-01-15T07:45:26;53.00;;;26.17;;
41255;SDS011;26989;45.524;10.938;2024-01-15T07:48:11;54.80;;;26.50;;
41255;SDS011;26989;45.524;10.938;2024-01-15T07:50:38;58.33;;;26.20;;
41255;SDS011;26989;45.524;10.938;2024-01-15T07:53:05;51.00;;;24.08;;
41255;SDS011;26989;45.524;10.938;2024-01-15T07:55:32;59.00;;;25.88;;
41255;SDS011;26989;45.524;10.938;2024-01-15T07:57:59;51.75;;;24.98;;
41255;SDS011;26989;45.524;10.938;2024-01-15T08:00:40;52.58;;;25.70;;
41255;SDS011;26989;45.524;10.938;2024-01-15T08:03:07;59.38;;;28.60;;
41255;SDS011;26989;45.524;10.938;2024-01-15T08:05:35;69.22;;;30.58;;
41255;SDS011;26989;45.524;10.938;2024-01-15T08:08:02;66.72;;;31.20;;
41255;SDS011;26989;45.524;10.938;2024-01-15T08:10:29;60.85;;;30.85;;
41255;SDS011;26989;45.524;10.938;2024-01-15T08:12:56;66.53;;;29.95;;
41255;SDS011;26989;45.524;10.938;2024-01-15T08:15:23;68.65;;;32.15;;
41255;SDS011;26989;45.524;10.938;2024-01-15T08:17:56;65.90;;;31.50;;
41255;SDS011;26989;45.524;10.938;2024-01-15T08:20:24;58.50;;;29.67;;
41255;SDS011;26989;45.524;10.938;2024-01-15T08:22:52;57.45;;;30.00;;
41255;SDS011;26989;45.524;10.938;2024-01-15T08:25:19;61.63;;;30.27;;
41255;SDS011;26989;45.524;10.938;2024-01-15T08:27:51;65.30;;;28.88;;
41255;SDS011;26989;45.524;10.938;2024-01-15T08:30:18;56.67;;;29.40;;
41255;SDS011;26989;45.524;10.938;2024-01-15T08:32:46;56.33;;;28.45;;
41255;SDS011;26989;45.524;10.938;2024-01-15T08:35:14;55.13;;;27.95;;
41255;SDS011;26989;45.524;10.938;2024-01-15T08:37:42;55.28;;;27.30;;
41255;SDS011;26989;45.524;10.938;2024-01-15T08:40:10;56.05;;;27.63;;
41255;SDS011;26989;45.524;10.938;2024-01-15T08:42:40;56.55;;;27.58;;
41255;SDS011;26989;45.524;10.938;2024-01-15T08:45:10;56.03;;;29.05;;
41255;SDS011;26989;45.524;10.938;2024-01-15T08:47:37;57.13;;;29.73;;
41255;SDS011;26989;45.524;10.938;2024-01-15T08:50:05;64.95;;;31.00;;
41255;SDS011;26989;45.524;10.938;2024-01-15T08:52:36;62.25;;;30.73;;
41255;SDS011;26989;45.524;10.938;2024-01-15T08:55:06;67.82;;;31.80;;
41255;SDS011;26989;45.524;10.938;2024-01-15T08:57:33;78.32;;;35.08;;
41255;SDS011;26989;45.524;10.938;2024-01-15T09:00:00;64.38;;;33.28;;
41255;SDS011;26989;45.524;10.938;2024-01-15T09:02:30;78.07;;;36.95;;
41255;SDS011;26989;45.524;10.938;2024-01-15T09:04:57;68.10;;;34.55;;
41255;SDS011;26989;45.524;10.938;2024-01-15T09:07:25;72.95;;;33.53;;
41255;SDS011;26989;45.524;10.938;2024-01-15T09:10:00;70.35;;;33.22;;
41255;SDS011;26989;45.524;10.938;2024-01-15T09:12:28;59.88;;;31.20;;
41255;SDS011;26989;45.524;10.938;2024-01-15T09:14:56;73.63;;;33.00;;
41255;SDS011;26989;45.524;10.938;2024-01-15T09:17:23;65.38;;;31.17;;
41255;SDS011;26989;45.524;10.938;2024-01-15T09:20:01;61.80;;;31.38;;
41255;SDS011;26989;45.524;10.938;2024-01-15T09:22:44;57.88;;;28.92;;
41255;SDS011;26989;45.524;10.938;2024-01-15T09:25:12;63.83;;;31.65;;
41255;SDS011;26989;45.524;10.938;2024-01-15T09:30:15;56.83;;;28.15;;
41255;SDS011;26989;45.524;10.938;2024-01-15T09:32:42;50.92;;;27.58;;
41255;SDS011;26989;45.524;10.938;2024-01-15T09:35:09;55.17;;;27.30;;
41255;SDS011;26989;45.524;10.938;2024-01-15T09:37:37;51.75;;;26.65;;
41255;SDS011;26989;45.524;10.938;2024-01-15T09:40:13;50.03;;;27.65;;
41255;SDS011;26989;45.524;10.938;2024-01-15T09:42:42;55.05;;;27.13;;
41255;SDS011;26989;45.524;10.938;2024-01-15T09:45:12;52.33;;;26.67;;
41255;SDS011;26989;45.524;10.938;2024-01-15T09:47:43;56.80;;;27.83;;
41255;SDS011;26989;45.524;10.938;2024-01-15T09:50:12;51.03;;;26.67;;
41255;SDS011;26989;45.524;10.938;2024-01-15T09:52:42;47.67;;;25.42;;
41255;SDS011;26989;45.524;10.938;2024-01-15T09:55:11;49.45;;;23.95;;
41255;SDS011;26989;45.524;10.938;2024-01-15T09:57:43;47.97;;;24.90;;
41255;SDS011;26989;45.524;10.938;2024-01-15T10:00:11;46.20;;;23.42;;
41255;SDS011;26989;45.524;10.938;2024-01-15T10:02:41;49.17;;;23.50;;
41255;SDS011;26989;45.524;10.938;2024-01-15T10:05:08;51.00;;;23.30;;
41255;SDS011;26989;45.524;10.938;2024-01-15T10:07:37;51.53;;;23.98;;
41255;SDS011;26989;45.524;10.938;2024-01-15T10:10:05;53.17;;;24.67;;
41255;SDS011;26989;45.524;10.938;2024-01-15T10:12:33;51.60;;;26.08;;
41255;SDS011;26989;45.524;10.938;2024-01-15T10:15:01;46.05;;;25.08;;
41255;SDS011;26989;45.524;10.938;2024-01-15T10:17:28;44.88;;;24.90;;
41255;SDS011;26989;45.524;10.938;2024-01-15T10:19:55;49.45;;;24.67;;
41255;SDS011;26989;45.524;10.938;2024-01-15T10:22:23;51.25;;;26.70;;
41255;SDS011;26989;45.524;10.938;2024-01-15T10:24:55;46.72;;;26.50;;
41255;SDS011;26989;45.524;10.938;2024-01-15T10:27:25;54.88;;;27.23;;
41255;SDS011;26989;45.524;10.938;2024-01-15T10:29:52;46.53;;;25.55;;
41255;SDS011;26989;45.524;10.938;2024-01-15T10:32:25;51.70;;;26.38;;
41255;SDS011;26989;45.524;10.938;2024-01-15T10:35:00;59.50;;;26.48;;
41255;SDS011;26989;45.524;10.938;2024-01-15T10:37:56;45.92;;;22.38;;
41255;SDS011;26989;45.524;10.938;2024-01-15T10:40:31;46.70;;;22.98;;
41255;SDS011;26989;45.524;10.938;2024-01-15T10:42:59;47.67;;;23.60;;
41255;SDS011;26989;45.524;10.938;2024-01-15T10:45:54;47.17;;;22.20;;
41255;SDS011;26989;45.524;10.938;2024-01-15T10:48:21;44.05;;;22.60;;
41255;SDS011;26989;45.524;10.938;2024-01-15T10:50:49;39.40;;;20.83;;
41255;SDS011;26989;45.524;10.938;2024-01-15T10:53:17;39.67;;;20.95;;
41255;SDS011;26989;45.524;10.938;2024-01-15T10:55:45;38.35;;;19.05;;
41255;SDS011;26989;45.524;10.938;2024-01-15T10:58:15;34.55;;;18.50;;
41255;SDS011;26989;45.524;10.938;2024-01-15T11:00:44;34.47;;;18.55;;
41255;SDS011;26989;45.524;10.938;2024-01-15T11:03:14;34.85;;;18.25;;
41255;SDS011;26989;45.524;10.938;2024-01-15T11:05:43;41.28;;;18.15;;
41255;SDS011;26989;45.524;10.938;2024-01-15T11:08:11;31.67;;;16.95;;
41255;SDS011;26989;45.524;10.938;2024-01-15T11:10:45;34.15;;;17.77;;
41255;SDS011;26989;45.524;10.938;2024-01-15T11:13:22;38.45;;;18.20;;
41255;SDS011;26989;45.524;10.938;2024-01-15T11:18:37;30.45;;;17.83;;
41255;SDS011;26989;45.524;10.938;2024-01-15T11:26:27;43.05;;;20.30;;
41255;SDS011;26989;45.524;10.938;2024-01-15T11:29:03;35.38;;;19.00;;
41255;SDS011;26989;45.524;10.938;2024-01-15T11:34:06;36.55;;;18.17;;
41255;SDS011;26989;45.524;10.938;2024-01-15T11:40:02;37.97;;;19.95;;
41255;SDS011;26989;45.524;10.938;2024-01-15T11:42:10;35.33;;;18.58;;
41255;SDS011;26989;45.524;10.938;2024-01-15T11:44:38;36.00;;;18.95;;
41255;SDS011;26989;45.524;10.938;2024-01-15T11:47:06;39.15;;;20.60;;
41255;SDS011;26989;45.524;10.938;2024-01-15T11:52:36;39.22;;;20.25;;
41255;SDS011;26989;45.524;10.938;2024-01-15T11:55:19;36.60;;;19.38;;
41255;SDS011;26989;45.524;10.938;2024-01-15T11:57:50;49.83;;;22.10;;
41255;SDS011;26989;45.524;10.938;2024-01-15T12:00:18;51.38;;;22.90;;
41255;SDS011;26989;45.524;10.938;2024-01-15T12:02:48;41.20;;;20.20;;
41255;SDS011;26989;45.524;10.938;2024-01-15T12:05:16;47.38;;;20.60;;
41255;SDS011;26989;45.524;10.938;2024-01-15T12:07:45;41.20;;;21.55;;
41255;SDS011;26989;45.524;10.938;2024-01-15T12:10:17;44.40;;;23.08;;
41255;SDS011;26989;45.524;10.938;2024-01-15T12:12:59;45.83;;;24.00;;
41255;SDS011;26989;45.524;10.938;2024-01-15T12:15:29;48.78;;;24.65;;
41255;SDS011;26989;45.524;10.938;2024-01-15T12:17:58;52.60;;;25.02;;
41255;SDS011;26989;45.524;10.938;2024-01-15T12:20:27;52.95;;;25.27;;
41255;SDS011;26989;45.524;10.938;2024-01-15T12:22:55;53.67;;;26.20;;
41255;SDS011;26989;45.524;10.938;2024-01-15T12:25:29;48.58;;;24.98;;
41255;SDS011;26989;45.524;10.938;2024-01-15T12:27:57;54.97;;;24.40;;
41255;SDS011;26989;45.524;10.938;2024-01-15T12:30:26;45.65;;;23.38;;
41255;SDS011;26989;45.524;10.938;2024-01-15T12:32:54;48.13;;;24.52;;
41255;SDS011;26989;45.524;10.938;2024-01-15T12:35:23;46.17;;;22.52;;
41255;SDS011;26989;45.524;10.938;2024-01-15T12:37:57;42.08;;;22.02;;
41255;SDS011;26989;45.524;10.938;2024-01-15T12:40:26;46.58;;;23.63;;
41255;SDS011;26989;45.524;10.938;2024-01-15T12:42:54;42.03;;;21.90;;
41255;SDS011;26989;45.524;10.938;2024-01-15T12:45:21;43.55;;;23.17;;
41255;SDS011;26989;45.524;10.938;2024-01-15T12:47:49;42.15;;;22.15;;
41255;SDS011;26989;45.524;10.938;2024-01-15T12:50:18;40.88;;;22.02;;
41255;SDS011;26989;45.524;10.938;2024-01-15T12:52:47;40.90;;;20.60;;
41255;SDS011;26989;45.524;10.938;2024-01-15T12:55:14;46.97;;;21.63;;
41255;SDS011;26989;45.524;10.938;2024-01-15T12:57:42;38.15;;;20.30;;
41255;SDS011;26989;45.524;10.938;2024-01-15T13:00:09;48.72;;;23.42;;
41255;SDS011;26989;45.524;10.938;2024-01-15T13:02:41;45.97;;;23.42;;
41255;SDS011;26989;45.524;10.938;2024-01-15T13:05:11;47.25;;;22.38;;
41255;SDS011;26989;45.524;10.938;2024-01-15T13:07:40;44.00;;;23.15;;
41255;SDS011;26989;45.524;10.938;2024-01-15T13:10:07;46.38;;;23.60;;
41255;SDS011;26989;45.524;10.938;2024-01-15T13:12:36;46.33;;;23.77;;
41255;SDS011;26989;45.524;10.938;2024-01-15T13:17:40;51.35;;;23.65;;
41255;SDS011;26989;45.524;10.938;2024-01-15T13:20:07;48.75;;;25.60;;
41255;SDS011;26989;45.524;10.938;2024-01-15T13:22:36;51.08;;;25.48;;
41255;SDS011;26989;45.524;10.938;2024-01-15T13:25:06;49.53;;;25.52;;
41255;SDS011;26989;45.524;10.938;2024-01-15T13:27:35;47.45;;;24.25;;
41255;SDS011;26989;45.524;10.938;2024-01-15T13:30:04;44.58;;;23.38;;
41255;SDS011;26989;45.524;10.938;2024-01-15T13:32:35;40.97;;;21.92;;
41255;SDS011;26989;45.524;10.938;2024-01-15T13:35:02;47.47;;;22.45;;
41255;SDS011;26989;45.524;10.938;2024-01-15T13:37:32;49.15;;;24.85;;
41255;SDS011;26989;45.524;10.938;2024-01-15T13:39:59;41.05;;;23.33;;
41255;SDS011;26989;45.524;10.938;2024-01-15T13:42:26;45.35;;;25.40;;
41255;SDS011;26989;45.524;10.938;2024-01-15T13:44:54;46.38;;;23.95;;
41255;SDS011;26989;45.524;10.938;2024-01-15T13:47:21;50.30;;;23.77;;
41255;SDS011;26989;45.524;10.938;2024-01-15T13:49:48;49.85;;;25.13;;
41255;SDS011;26989;45.524;10.938;2024-01-15T13:52:15;47.05;;;26.25;;
41255;SDS011;26989;45.524;10.938;2024-01-15T13:54:44;53.97;;;26.38;;
41255;SDS011;26989;45.524;10.938;2024-01-15T13:57:16;50.28;;;24.90;;
41255;SDS011;26989;45.524;10.938;2024-01-15T14:02:26;59.85;;;28.02;;
41255;SDS011;26989;45.524;10.938;2024-01-15T14:04:55;55.33;;;29.73;;
41255;SDS011;26989;45.524;10.938;2024-01-15T14:07:22;61.08;;;29.48;;
41255;SDS011;26989;45.524;10.938;2024-01-15T14:10:03;56.70;;;28.00;;
41255;SDS011;26989;45.524;10.938;2024-01-15T14:12:33;60.45;;;28.92;;
41255;SDS011;26989;45.524;10.938;2024-01-15T14:15:02;53.85;;;28.88;;
41255;SDS011;26989;45.524;10.938;2024-01-15T14:17:44;57.50;;;27.90;;
41255;SDS011;26989;45.524;10.938;2024-01-15T14:20:37;56.60;;;28.65;;
41255;SDS011;26989;45.524;10.938;2024-01-15T14:23:25;58.00;;;29.85;;
41255;SDS011;26989;45.524;10.938;2024-01-15T14:25:54;58.15;;;28.85;;
41255;SDS011;26989;45.524;10.938;2024-01-15T14:28:25;53.70;;;28.67;;
41255;SDS011;26989;45.524;10.938;2024-01-15T14:30:54;65.43;;;31.15;;
41255;SDS011;26989;45.524;10.938;2024-01-15T14:33:25;57.60;;;30.10;;
41255;SDS011;26989;45.524;10.938;2024-01-15T14:35:53;52.92;;;27.95;;
41255;SDS011;26989;45.524;10.938;2024-01-15T14:38:20;53.85;;;28.63;;
41255;SDS011;26989;45.524;10.938;2024-01-15T14:40:47;54.97;;;29.02;;